Time;durP1;ratioP1;P1;durP2;ratioP2;P2;SDS_P1;SDS_P2;PMS_P1;PMS_P2;Temp;Humidity;BMP_temperature;BMP_pressure;BME280_temperature;BME280_humidity;BME280_pressure;Samples;Min_cycle;Max_cycle;Signal;HPM_P1;HPM_P2
2021/04/20 00:01:33;;;;;;;27.05;14.30;;;2.30;99.90;;;;;;8329076;28;20112;-67
2021/04/20 00:05:34;;;;;;;24.77;14.30;;;2.30;99.90;;;;;;8328582;28;20381;-67
2021/04/20 00:09:35;;;;;;;24.73;14.38;;;2.10;99.90;;;;;;8328790;28;20030;-67
2021/04/20 00:13:36;;;;;;;23.98;14.27;;;1.90;99.90;;;;;;8327038;28;20511;-67
2021/04/20 00:17:36;;;;;;;21.95;13.57;;;1.90;99.90;;;;;;8295318;28;20105;-67
2021/04/20 00:21:37;;;;;;;25.15;14.73;;;2.10;99.90;;;;;;8294948;28;20029;-67
2021/04/20 00:25:38;;;;;;;24.88;13.35;;;1.90;99.90;;;;;;8295286;28;20037;-67
2021/04/20 00:29:38;;;;;;;23.83;13.55;;;2.00;99.90;;;;;;8295365;28;20033;-67
2021/04/20 00:33:40;;;;;;;24.35;13.82;;;1.90;99.90;;;;;;8294941;28;20061;-67
2021/04/20 00:37:41;;;;;;;20.00;12.32;;;2.00;99.90;;;;;;8294010;28;20038;-67
2021/04/20 00:41:42;;;;;;;41.63;12.88;;;2.00;99.90;;;;;;8295602;28;20018;-67
2021/04/20 00:45:43;;;;;;;21.00;12.80;;;2.00;99.90;;;;;;8311755;28;20057;-67
2021/04/20 00:49:44;;;;;;;19.92;12.55;;;1.90;99.90;;;;;;8326155;28;20031;-67
2021/04/20 00:53:45;;;;;;;17.42;8.98;;;2.00;99.90;;;;;;8327203;28;20022;-67
2021/04/20 00:57:46;;;;;;;23.73;12.57;;;1.90;99.90;;;;;;8325981;28;20558;-67
2021/04/20 01:01:47;;;;;;;22.20;13.02;;;1.90;99.90;;;;;;8327062;28;20029;-67
2021/04/20 01:05:49;;;;;;;21.45;12.43;;;1.70;99.90;;;;;;8326704;28;20373;-68
2021/04/20 01:09:51;;;;;;;20.00;12.10;;;1.60;99.90;;;;;;8326875;28;20033;-67
2021/04/20 01:13:51;;;;;;;20.80;12.10;;;1.50;99.90;;;;;;8325228;28;20026;-67
2021/04/20 01:17:52;;;;;;;20.30;12.05;;;1.50;99.90;;;;;;8326635;28;20115;-67
2021/04/20 01:21:55;;;;;;;21.52;11.80;;;1.80;99.90;;;;;;8326561;28;20037;-67
2021/04/20 01:25:57;;;;;;;21.77;12.98;;;1.80;99.90;;;;;;8324934;28;20029;-67
2021/04/20 01:29:57;;;;;;;21.17;13.10;;;1.90;99.90;;;;;;8324751;28;20028;-67
2021/04/20 01:33:58;;;;;;;23.95;13.85;;;1.80;99.90;;;;;;8326153;28;20033;-67
2021/04/20 01:38:02;;;;;;;22.17;12.85;;;1.90;99.90;;;;;;8326264;28;20029;-67
2021/04/20 01:42:02;;;;;;;20.85;13.43;;;1.90;99.90;;;;;;8326104;28;20033;-67
2021/04/20 01:46:04;;;;;;;23.50;12.65;;;1.80;99.90;;;;;;8325611;28;20072;-67
2021/04/20 01:50:06;;;;;;;17.77;11.10;;;1.60;99.90;;;;;;8324785;28;20022;-67
2021/04/20 01:54:06;;;;;;;18.02;10.95;;;1.60;99.90;;;;;;8325761;28;20022;-67
2021/04/20 01:58:08;;;;;;;20.30;12.27;;;1.70;99.90;;;;;;8325877;28;20041;-67
2021/04/20 02:02:08;;;;;;;18.77;11.93;;;1.90;99.90;;;;;;8325644;28;20109;-67
2021/04/20 02:06:10;;;;;;;20.90;12.30;;;2.10;99.90;;;;;;8324496;28;20029;-67
2021/04/20 02:10:13;;;;;;;20.42;12.57;;;2.10;99.90;;;;;;8326139;28;20411;-67
2021/04/20 02:14:14;;;;;;;19.85;11.88;;;2.30;99.90;;;;;;8324547;28;20033;-67
2021/04/20 02:18:15;;;;;;;19.25;12.43;;;2.20;99.90;;;;;;8325389;28;20101;-67
2021/04/20 02:22:16;;;;;;;21.48;12.48;;;2.10;99.90;;;;;;8325889;28;20034;-67
2021/04/20 02:26:35;;;;;;;19.58;12.25;;;2.50;99.90;;;;;;8325892;28;20041;-67
2021/04/20 02:30:36;;;;;;;22.65;13.77;;;2.50;99.90;;;;;;8325635;28;20028;-67
2021/04/20 02:34:37;;;;;;;28.42;15.85;;;2.30;99.90;;;;;;8322886;28;20381;-68
2021/04/20 02:38:38;;;;;;;28.20;15.82;;;2.10;99.90;;;;;;8325518;28;20064;-67
2021/04/20 02:42:39;;;;;;;27.13;16.08;;;2.10;99.90;;;;;;8327723;28;20030;-67
2021/04/20 02:46:41;;;;;;;22.98;14.65;;;2.50;99.90;;;;;;8330829;28;20112;-67
2021/04/20 02:50:43;;;;;;;19.45;11.93;;;2.60;99.90;;;;;;8331486;28;20031;-67
2021/04/20 02:54:44;;;;;;;19.63;12.73;;;2.60;99.90;;;;;;8330947;28;20029;-67
2021/04/20 02:58:45;;;;;;;22.73;13.00;;;2.60;99.90;;;;;;8331270;28;20160;-67
2021/04/20 03:02:50;;;;;;;23.35;13.55;;;2.70;99.90;;;;;;8330789;28;20044;-67
2021/04/20 03:06:52;;;;;;;23.23;14.50;;;2.40;99.90;;;;;;8331050;28;20116;-68
2021/04/20 03:10:57;;;;;;;26.70;15.38;;;2.20;99.90;;;;;;8330951;28;20018;-67
2021/04/20 03:15:00;;;;;;;27.67;15.35;;;2.20;99.90;;;;;;8330570;28;20373;-68
2021/04/20 03:19:04;;;;;;;25.75;14.30;;;2.10;99.90;;;;;;8330906;28;20026;-67
2021/04/20 03:23:04;;;;;;;24.60;14.00;;;2.40;99.90;;;;;;8330577;28;20031;-67
2021/04/20 03:27:07;;;;;;;23.48;13.05;;;2.40;99.90;;;;;;8328712;28;20480;-67
2021/04/20 03:31:07;;;;;;;25.65;14.95;;;2.20;99.90;;;;;;8329310;28;20026;-67
2021/04/20 03:35:14;;;;;;;22.45;12.95;;;2.10;99.90;;;;;;8329821;28;20087;-67
2021/04/20 03:39:19;;;;;;;23.17;13.63;;;2.40;99.90;;;;;;8329809;28;20033;-67
2021/04/20 03:43:25;;;;;;;25.50;14.00;;;2.40;99.90;;;;;;8329933;28;20098;-67
2021/04/20 03:47:35;;;;;;;22.77;13.05;;;2.40;99.90;;;;;;8328561;28;20063;-67
2021/04/20 03:51:37;;;;;;;22.45;13.20;;;2.50;99.90;;;;;;8329842;28;20550;-67
2021/04/20 03:55:39;;;;;;;23.48;13.27;;;2.50;99.90;;;;;;8322413;28;20546;-67
2021/04/20 03:59:43;;;;;;;25.15;13.10;;;2.60;99.90;;;;;;8312606;28;20029;-67
2021/04/20 04:03:45;;;;;;;19.45;11.43;;;2.60;99.90;;;;;;8316339;28;20400;-67
2021/04/20 04:07:50;;;;;;;21.60;11.85;;;2.30;99.90;;;;;;8314547;28;20136;-67
2021/04/20 04:12:03;;;;;;;27.02;12.73;;;2.50;99.90;;;;;;8318882;28;20558;-67
2021/04/20 04:16:05;;;;;;;23.30;13.93;;;2.60;99.90;;;;;;8312590;28;20026;-67
2021/04/20 04:20:06;;;;;;;25.75;14.15;;;2.50;99.90;;;;;;8325155;28;20245;-67
2021/04/20 04:24:09;;;;;;;26.50;14.80;;;2.30;99.90;;;;;;8328304;28;20022;-67
2021/04/20 04:28:12;;;;;;;23.52;13.18;;;2.50;99.90;;;;;;8328259;28;20087;-67
2021/04/20 04:32:16;;;;;;;25.27;13.25;;;2.70;99.90;;;;;;8326963;28;20063;-66
2021/04/20 04:36:17;;;;;;;25.35;12.45;;;2.80;99.90;;;;;;8328197;28;20034;-66
2021/04/20 04:40:20;;;;;;;22.83;12.57;;;2.70;99.90;;;;;;8328001;28;20030;-65
2021/04/20 04:44:21;;;;;;;24.63;12.95;;;2.60;99.90;;;;;;8322869;28;20029;-66
2021/04/20 04:48:24;;;;;;;22.15;12.82;;;2.90;99.90;;;;;;8312154;28;20029;-66
2021/04/20 04:52:25;;;;;;;23.40;12.88;;;2.90;99.90;;;;;;8293431;28;20048;-66
2021/04/20 04:56:26;;;;;;;24.50;13.73;;;2.80;99.90;;;;;;8293822;28;20428;-66
2021/04/20 05:00:28;;;;;;;23.38;13.70;;;2.90;99.90;;;;;;8305062;28;20028;-65
2021/04/20 05:04:29;;;;;;;25.63;14.05;;;3.20;99.90;;;;;;8311189;28;20091;-67
2021/04/20 05:08:30;;;;;;;28.20;15.27;;;2.90;99.90;;;;;;8314678;28;20113;-66
2021/04/20 05:12:34;;;;;;;25.23;15.43;;;2.90;99.90;;;;;;8320955;28;20061;-66
2021/04/20 05:16:35;;;;;;;28.92;16.27;;;3.10;99.90;;;;;;8317466;28;20046;-65
2021/04/20 05:20:42;;;;;;;29.77;17.70;;;3.20;99.90;;;;;;8293989;28;20042;-69
2021/04/20 05:24:43;;;;;;;29.70;16.23;;;3.30;99.90;;;;;;8309783;28;20064;-69
2021/04/20 05:28:44;;;;;;;23.10;12.82;;;3.60;99.90;;;;;;8299022;28;20037;-64
2021/04/20 05:32:52;;;;;;;22.50;14.32;;;3.70;99.90;;;;;;8302192;28;20030;-63
2021/04/20 05:36:53;;;;;;;25.02;15.25;;;3.90;99.90;;;;;;8307691;28;20569;-63
2021/04/20 05:40:53;;;;;;;23.33;15.02;;;4.20;99.90;;;;;;8307544;28;20034;-63
2021/04/20 05:44:57;;;;;;;27.73;15.82;;;4.60;99.90;;;;;;8316840;28;20033;-63
2021/04/20 05:48:59;;;;;;;24.40;15.65;;;4.80;99.90;;;;;;8310522;28;20140;-62
2021/04/20 05:53:00;;;;;;;30.75;16.65;;;4.70;99.90;;;;;;8321334;28;20022;-63
2021/04/20 05:57:01;;;;;;;27.70;16.77;;;4.80;99.90;;;;;;8309804;28;20507;-62
2021/04/20 06:01:04;;;;;;;29.10;17.33;;;4.80;99.90;;;;;;8320836;28;20032;-63
2021/04/20 06:05:16;;;;;;;29.80;17.70;;;4.80;99.90;;;;;;8319418;28;20036;-63
2021/04/20 06:09:17;;;;;;;27.52;17.30;;;5.00;99.90;;;;;;8319266;28;20061;-63
2021/04/20 06:13:18;;;;;;;32.63;19.60;;;4.90;99.90;;;;;;8322891;28;20017;-63
2021/04/20 06:17:19;;;;;;;30.35;18.15;;;4.80;99.90;;;;;;8327488;28;20072;-64
2021/04/20 06:21:22;;;;;;;25.88;16.40;;;4.90;99.90;;;;;;8328357;28;20037;-63
2021/04/20 06:25:25;;;;;;;24.65;15.45;;;5.00;99.90;;;;;;8322532;28;20068;-63
2021/04/20 06:29:29;;;;;;;28.27;17.13;;;5.10;99.90;;;;;;8324356;28;20041;-63
2021/04/20 06:33:34;;;;;;;29.13;18.13;;;5.20;99.90;;;;;;8319627;28;20041;-62
2021/04/20 06:37:43;;;;;;;31.58;18.63;;;5.40;99.90;;;;;;8318236;28;20107;-63
2021/04/20 06:41:47;;;;;;;30.67;18.92;;;5.70;99.90;;;;;;8309727;28;20057;-63
2021/04/20 06:46:01;;;;;;;30.02;17.35;;;6.30;99.90;;;;;;8324080;28;20041;-63
2021/04/20 06:50:08;;;;;;;27.95;17.33;;;6.50;99.90;;;;;;8331015;28;20029;-62
2021/04/20 06:54:21;;;;;;;31.58;18.52;;;6.70;99.90;;;;;;8328909;28;20369;-63
2021/04/20 06:58:35;;;;;;;32.13;18.63;;;7.00;99.90;;;;;;8330059;28;20096;-63
2021/04/20 07:02:58;;;;;;;29.50;17.65;;;7.30;99.90;;;;;;8306949;28;20030;-63
2021/04/20 07:07:27;;;;;;;26.77;18.17;;;7.70;99.90;;;;;;8300354;28;20551;-63
2021/04/20 07:11:32;;;;;;;29.85;18.42;;;8.10;99.90;;;;;;8312443;28;20036;-63
2021/04/20 07:15:37;;;;;;;29.08;18.40;;;8.20;99.90;;;;;;8311345;28;20021;-64
2021/04/20 07:19:49;;;;;;;30.80;18.92;;;8.40;99.90;;;;;;8301043;28;20030;-63
2021/04/20 07:24:14;;;;;;;31.27;19.10;;;8.60;99.90;;;;;;8300675;28;20543;-64
2021/04/20 07:28:49;;;;;;;31.10;19.30;;;8.70;99.90;;;;;;8308777;28;20022;-64
2021/04/20 07:33:29;;;;;;;29.27;19.48;;;9.00;99.90;;;;;;8312683;28;20021;-64
2021/04/20 07:37:52;;;;;;;28.70;19.35;;;9.40;99.90;;;;;;8286096;28;20037;-64
2021/04/20 07:41:59;;;;;;;28.27;18.88;;;9.70;99.90;;;;;;8308596;28;20476;-64
2021/04/20 07:46:12;;;;;;;27.05;18.35;;;9.80;99.90;;;;;;8313259;28;20040;-64
2021/04/20 07:50:18;;;;;;;28.80;18.95;;;10.10;99.90;;;;;;8295115;28;20029;-64
2021/04/20 07:54:51;;;;;;;30.55;20.17;;;10.50;99.90;;;;;;8295004;28;20496;-64
2021/04/20 07:58:54;;;;;;;29.65;19.55;;;10.50;99.90;;;;;;8297366;28;20061;-64
2021/04/20 08:03:07;;;;;;;30.98;20.35;;;10.50;99.90;;;;;;8295473;28;20496;-64
2021/04/20 08:07:17;;;;;;;29.40;20.17;;;10.90;99.90;;;;;;8327903;28;20041;-64
2021/04/20 08:11:25;;;;;;;32.27;20.90;;;11.00;99.90;;;;;;8328503;28;20393;-64
2021/04/20 08:15:49;;;;;;;33.75;21.67;;;11.10;99.90;;;;;;8327060;28;20060;-64
2021/04/20 08:19:56;;;;;;;31.75;21.85;;;11.40;99.90;;;;;;8327807;28;20024;-64
2021/04/20 08:23:59;;;;;;;36.13;21.63;;;11.60;99.90;;;;;;8323471;28;20024;-64
2021/04/20 08:28:17;;;;;;;33.05;20.75;;;11.50;99.90;;;;;;8318835;28;20087;-64
2021/04/20 08:32:24;;;;;;;27.50;18.38;;;11.50;99.90;;;;;;8303160;28;20034;-64
2021/04/20 08:36:51;;;;;;;24.45;15.75;;;11.90;99.90;;;;;;8307244;28;20031;-64
2021/04/20 08:41:03;;;;;;;24.60;16.00;;;12.40;99.90;;;;;;8297606;28;20034;-64
2021/04/20 08:45:19;;;;;;;28.55;18.10;;;12.70;99.90;;;;;;8308668;28;20033;-64
2021/04/20 08:49:39;;;;;;;20.60;14.25;;;13.20;99.90;;;;;;8312170;28;20067;-63
2021/04/20 08:53:48;;;;;;;23.35;14.88;;;13.80;99.90;;;;;;8312166;28;20025;-64
2021/04/20 08:58:26;;;;;;;24.02;15.88;;;14.00;99.90;;;;;;8312671;28;20056;-64
2021/04/20 09:02:44;;;;;;;22.52;15.02;;;13.90;99.90;;;;;;8307663;28;20447;-64
2021/04/20 09:06:54;;;;;;;20.70;13.48;;;14.10;99.90;;;;;;8314350;28;20072;-64
2021/04/20 09:10:56;;;;;;;21.37;13.90;;;14.70;99.90;;;;;;8322332;28;20515;-64
2021/04/20 09:15:01;;;;;;;22.08;15.93;;;15.20;99.90;;;;;;8307545;28;20033;-64
2021/04/20 09:19:04;;;;;;;21.20;14.85;;;15.50;99.90;;;;;;8315246;28;20060;-63
2021/04/20 09:23:20;;;;;;;21.17;15.30;;;15.60;99.90;;;;;;8319952;28;20492;-64
2021/04/20 09:27:44;;;;;;;22.70;15.45;;;15.60;99.90;;;;;;8309599;28;20511;-63
2021/04/20 09:32:08;;;;;;;22.55;16.15;;;15.90;99.90;;;;;;8308002;28;20427;-64
2021/04/20 09:36:10;;;;;;;23.25;16.92;;;;;;;;;;8306192;28;20053;-64
2021/04/20 09:40:15;;;;;;;25.20;17.35;;;16.20;99.90;;;;;;8305497;28;20037;-64
2021/04/20 09:44:36;;;;;;;24.10;17.50;;;15.70;99.90;;;;;;8311833;28;20025;-63
2021/04/20 09:49:01;;;;;;;25.98;17.48;;;15.10;99.90;;;;;;8324816;28;20065;-63
2021/04/20 09:53:23;;;;;;;23.90;17.13;;;14.70;99.90;;;;;;8311086;28;20021;-65
2021/04/20 09:57:33;;;;;;;24.38;17.30;;;14.70;99.90;;;;;;8317090;28;20105;-64
2021/04/20 10:01:47;;;;;;;25.67;16.50;;;15.00;99.90;;;;;;8308052;28;20412;-63
2021/04/20 10:06:11;;;;;;;22.85;17.27;;;15.40;99.90;;;;;;8308662;28;20050;-64
2021/04/20 10:10:35;;;;;;;20.88;14.98;;;15.50;99.90;;;;;;8310341;28;20499;-63
2021/04/20 10:15:10;;;;;;;22.98;16.42;;;16.10;99.90;;;;;;8335065;28;20061;-64
2021/04/20 10:19:35;;;;;;;23.08;16.42;;;15.80;99.90;;;;;;8320829;28;20026;-63
2021/04/20 10:23:48;;;;;;;22.80;16.15;;;16.00;99.90;;;;;;8319619;28;20029;-63
2021/04/20 10:27:51;;;;;;;23.73;15.85;;;;;;;;;;8301876;28;20030;-64
2021/04/20 10:32:07;;;;;;;20.85;15.43;;;17.30;96.80;;;;;;8307927;28;20037;-63
2021/04/20 10:36:09;;;;;;;20.75;14.48;;;16.80;95.30;;;;;;8302809;28;20029;-63
2021/04/20 10:40:16;;;;;;;20.88;15.13;;;17.10;98.20;;;;;;8306953;28;20548;-63
2021/04/20 10:44:17;;;;;;;20.20;14.35;;;17.30;98.20;;;;;;8318064;28;20124;-65
2021/04/20 10:48:26;;;;;;;21.58;15.38;;;;;;;;;;8310928;28;20029;-64
2021/04/20 10:52:33;;;;;;;20.67;15.48;;;17.70;93.80;;;;;;8311475;28;20624;-64
2021/04/20 10:56:35;;;;;;;21.42;13.95;;;18.30;97.80;;;;;;8291584;28;20111;-64
2021/04/20 11:00:38;;;;;;;19.52;13.63;;;19.00;94.10;;;;;;8319459;28;20116;-65
2021/04/20 11:04:43;;;;;;;20.25;14.10;;;19.40;93.00;;;;;;8309660;28;20026;-64
2021/04/20 11:08:47;;;;;;;18.58;14.35;;;19.80;89.90;;;;;;8315806;28;20040;-65
2021/04/20 11:12:49;;;;;;;38.78;18.20;;;20.00;85.10;;;;;;8318226;28;20021;-65
2021/04/20 11:16:51;;;;;;;16.33;12.55;;;21.90;83.80;;;;;;8329696;28;20049;-65
2021/04/20 11:20:52;;;;;;;16.65;12.35;;;23.30;65.70;;;;;;8321405;28;20049;-65
2021/04/20 11:25:08;;;;;;;49.83;20.20;;;23.10;59.60;;;;;;8316486;28;20430;-65
2021/04/20 11:29:14;;;;;;;17.70;12.13;;;24.80;60.30;;;;;;8317947;28;20080;-65
2021/04/20 11:33:20;;;;;;;15.60;11.32;;;23.90;56.00;;;;;;8320824;28;20383;-64
2021/04/20 11:37:23;;;;;;;17.75;13.40;;;21.80;57.60;;;;;;8320987;28;20030;-64
2021/04/20 11:41:56;;;;;;;21.58;13.65;;;20.40;63.70;;;;;;8317638;28;20165;-64
2021/04/20 11:45:57;;;;;;;17.13;13.07;;;19.20;71.60;;;;;;8314459;28;20033;-64
2021/04/20 11:50:12;;;;;;;14.93;11.35;;;18.30;71.50;;;;;;8315256;28;20025;-64
2021/04/20 11:54:24;;;;;;;16.52;12.02;;;17.90;73.10;;;;;;8309630;28;20037;-64
2021/04/20 11:58:36;;;;;;;16.73;12.55;;;17.80;75.20;;;;;;8318419;28;20030;-64
2021/04/20 12:02:37;;;;;;;16.63;13.52;;;17.60;79.10;;;;;;8308463;28;20884;-64
2021/04/20 12:06:44;;;;;;;16.83;12.27;;;17.70;77.60;;;;;;8314433;28;20040;-64
2021/04/20 12:10:48;;;;;;;17.38;12.98;;;17.90;77.70;;;;;;8336300;28;20114;-64
2021/04/20 12:14:49;;;;;;;13.82;11.40;;;17.10;77.20;;;;;;8324078;28;20622;-64
2021/04/20 12:18:52;;;;;;;15.65;12.13;;;16.60;83.40;;;;;;8320899;28;20077;-64
2021/04/20 12:22:55;;;;;;;15.30;11.65;;;16.60;80.80;;;;;;8317745;28;20025;-64
2021/04/20 12:27:03;;;;;;;16.42;12.20;;;16.70;79.60;;;;;;8306142;28;20036;-64
2021/04/20 12:31:04;;;;;;;15.38;9.90;;;16.60;80.20;;;;;;8324996;28;20425;-64
2021/04/20 12:35:05;;;;;;;14.32;10.63;;;17.20;81.40;;;;;;8314819;28;20085;-64
2021/04/20 12:39:12;;;;;;;12.55;9.77;;;17.80;78.30;;;;;;8322161;28;20053;-66
2021/04/20 12:43:13;;;;;;;12.88;8.23;;;18.60;68.50;;;;;;8315625;28;20026;-65
2021/04/20 12:47:15;;;;;;;10.15;8.48;;;20.10;67.40;;;;;;8315452;28;20034;-64
2021/04/20 12:51:19;;;;;;;48.08;19.60;;;20.60;61.40;;;;;;8321591;28;20030;-64
2021/04/20 12:55:25;;;;;;;63.60;23.73;;;24.60;53.50;;;;;;8303076;28;20045;-65
2021/04/20 12:59:28;;;;;;;62.45;21.80;;;29.10;42.40;;;;;;8315612;28;20029;-68
2021/04/20 13:03:30;;;;;;;69.68;22.70;;;31.00;39.40;;;;;;8320115;28;20155;-69
2021/04/20 13:07:34;;;;;;;69.15;23.58;;;33.00;34.40;;;;;;8307406;28;20026;-68
2021/04/20 13:11:38;;;;;;;60.70;22.40;;;33.30;32.60;;;;;;8311082;28;20034;-69
2021/04/20 13:15:40;;;;;;;67.20;22.83;;;34.20;30.80;;;;;;8313235;28;20033;-69
2021/04/20 13:19:42;;;;;;;68.90;23.15;;;33.40;31.20;;;;;;8324304;28;20083;-70
2021/04/20 13:23:45;;;;;;;74.43;23.70;;;34.10;30.00;;;;;;8326356;28;20037;-70
2021/04/20 13:27:51;;;;;;;68.20;23.10;;;36.00;28.60;;;;;;8327458;28;20029;-69
2021/04/20 13:31:53;;;;;;;66.63;23.00;;;35.60;27.10;;;;;;8294243;28;20053;-69
2021/04/20 13:35:55;;;;;;;;;;;34.00;27.10;;;;;;8319452;28;20100;-68
2021/04/20 13:40:05;;;;;;;71.65;22.60;;;32.50;29.10;;;;;;8314438;28;20432;-68
2021/04/20 13:44:07;;;;;;;57.72;21.20;;;31.30;29.80;;;;;;8320275;28;20025;-68
2021/04/20 13:48:09;;;;;;;52.60;21.60;;;31.60;28.30;;;;;;8308642;28;20022;-66
2021/04/20 13:52:10;;;;;;;;;;;30.70;30.60;;;;;;8293877;28;20042;-66
2021/04/20 13:56:22;;;;;;;67.50;22.10;;;31.00;30.80;;;;;;8298130;28;20405;-67
2021/04/20 14:00:36;;;;;;;55.85;21.45;;;31.30;29.90;;;;;;8306163;28;20041;-66
2021/04/20 14:05:01;;;;;;;61.53;22.08;;;32.40;29.30;;;;;;8309627;28;20034;-67
2021/04/20 14:09:08;;;;;;;74.97;23.58;;;35.90;27.60;;;;;;8314687;28;20045;-68
2021/04/20 14:13:18;;;;;;;78.10;24.20;;;38.90;25.90;;;;;;8306385;28;20563;-68
2021/04/20 14:17:28;;;;;;;79.57;24.90;;;40.20;24.50;;;;;;8310261;28;20124;-67
2021/04/20 14:21:34;;;;;;;77.15;24.20;;;39.10;23.40;;;;;;8319834;28;20032;-66
2021/04/20 14:25:50;;;;;;;86.03;24.92;;;39.00;24.30;;;;;;8308995;28;20030;-67
2021/04/20 14:29:51;;;;;;;82.85;24.73;;;39.60;23.00;;;;;;8322813;28;20033;-66
2021/04/20 14:33:55;;;;;;;82.57;25.00;;;38.90;23.20;;;;;;8321707;28;20025;-67
2021/04/20 14:38:00;;;;;;;89.28;25.60;;;37.50;23.80;;;;;;8317380;28;20087;-67
2021/04/20 14:42:02;;;;;;;56.72;16.25;;;38.20;24.10;;;;;;8322039;28;20021;-67
2021/04/20 14:46:04;;;;;;;86.07;23.75;;;39.80;22.80;;;;;;8327693;28;20017;-66
2021/04/20 14:50:05;;;;;;;85.40;24.80;;;39.10;23.20;;;;;;8329699;28;20377;-67
2021/04/20 14:54:07;;;;;;;67.50;23.20;;;36.40;24.10;;;;;;8318458;28;20128;-66
2021/04/20 14:58:09;;;;;;;7.35;5.47;;;31.30;26.50;;;;;;8322338;28;20500;-64
2021/04/20 15:02:16;;;;;;;7.20;6.00;;;25.50;34.90;;;;;;8324222;28;20029;-66
2021/04/20 15:06:19;;;;;;;6.75;5.85;;;22.90;40.70;;;;;;8315887;28;20056;-65
2021/04/20 15:10:45;;;;;;;7.22;6.32;;;22.20;43.60;;;;;;8324843;28;20476;-67
2021/04/20 15:14:55;;;;;;;7.43;6.38;;;21.90;44.60;;;;;;8323657;28;20029;-66
2021/04/20 15:19:06;;;;;;;7.65;6.20;;;22.40;44.50;;;;;;8312715;28;20034;-66
2021/04/20 15:23:18;;;;;;;;;;;25.20;39.20;;;;;;8325481;28;20040;-67
2021/04/20 15:27:23;;;;;;;7.90;7.10;;;28.20;34.80;;;;;;8328883;28;20425;-67
2021/04/20 15:31:25;;;;;;;7.10;6.40;;;30.10;32.90;;;;;;8329325;28;20053;-66
2021/04/20 15:35:35;;;;;;;7.00;6.25;;;31.50;31.50;;;;;;8327760;28;20612;-68
2021/04/20 15:39:39;;;;;;;7.88;6.25;;;32.40;29.40;;;;;;8329848;28;20057;-66
2021/04/20 15:43:43;;;;;;;5.97;5.38;;;33.00;27.70;;;;;;8311850;28;20031;-67
2021/04/20 15:47:45;;;;;;;6.95;6.25;;;32.70;28.10;;;;;;8325775;28;20034;-67
2021/04/20 15:51:48;;;;;;;6.47;5.80;;;33.50;27.90;;;;;;8312508;28;20025;-66
2021/04/20 15:55:50;;;;;;;6.15;5.65;;;33.50;27.30;;;;;;8320904;28;20446;-67
2021/04/20 15:59:52;;;;;;;6.65;5.95;;;33.70;27.50;;;;;;8329109;28;20029;-66
2021/04/20 16:03:55;;;;;;;7.30;6.07;;;33.90;26.60;;;;;;8316927;28;20022;-67
2021/04/20 16:08:03;;;;;;;6.63;6.03;;;33.50;26.90;;;;;;8316692;28;20365;-67
2021/04/20 16:12:06;;;;;;;7.07;5.65;;;34.20;27.30;;;;;;8318114;28;20056;-66
2021/04/20 16:16:30;;;;;;;7.20;6.32;;;34.20;26.60;;;;;;8323156;28;20049;-67
2021/04/20 16:20:35;;;;;;;6.03;5.43;;;34.10;27.30;;;;;;8326956;28;20052;-67
2021/04/20 16:24:39;;;;;;;6.03;5.43;;;34.90;26.50;;;;;;8328342;28;20026;-67
2021/04/20 16:28:42;;;;;;;5.68;5.18;;;35.30;25.40;;;;;;8327801;28;20546;-67
2021/04/20 16:32:48;;;;;;;6.32;5.70;;;34.80;25.60;;;;;;8326988;28;20025;-67
2021/04/20 16:36:53;;;;;;;8.15;6.22;;;34.30;26.30;;;;;;8327539;28;20079;-67
2021/04/20 16:41:11;;;;;;;8.50;7.70;;;33.80;27.80;;;;;;8320838;28;20485;-67
2021/04/20 16:45:18;;;;;;;8.90;8.00;;;33.10;28.40;;;;;;8308048;28;20052;-67
2021/04/20 16:49:59;;;;;;;11.18;7.57;;;32.30;29.00;;;;;;8311246;28;20022;-67
2021/04/20 16:54:03;;;;;;;;;;;32.00;29.80;;;;;;8295925;28;20048;-67
2021/04/20 16:58:26;;;;;;;10.18;7.97;;;31.90;30.20;;;;;;8324670;28;20382;-67
2021/04/20 17:03:00;;;;;;;8.35;7.35;;;31.40;30.90;;;;;;8305974;28;20088;-66
2021/04/20 17:07:13;;;;;;;10.23;7.40;;;30.60;30.90;;;;;;8308133;28;20029;-66
2021/04/20 17:11:42;;;;;;;10.18;7.72;;;28.70;33.90;;;;;;8297580;28;20018;-66
2021/04/20 17:16:04;;;;;;;9.20;6.95;;;25.70;37.80;;;;;;8294950;28;20041;-66
2021/04/20 17:20:17;;;;;;;9.77;7.10;;;22.90;43.00;;;;;;8305445;28;20034;-66
2021/04/20 17:24:42;;;;;;;7.80;6.90;;;21.20;46.10;;;;;;8324642;28;20032;-66
2021/04/20 17:29:00;;;;;;;10.30;7.88;;;19.80;48.50;;;;;;8312376;28;20033;-65
2021/04/20 17:33:25;;;;;;;8.07;6.13;;;18.40;51.50;;;;;;8309071;28;20040;-65
2021/04/20 17:38:13;;;;;;;9.30;7.28;;;17.30;66.70;;;;;;8310620;28;20026;-65
2021/04/20 17:42:41;;;;;;;14.38;7.15;;;16.40;57.20;;;;;;8302219;28;20065;-65
2021/04/20 17:46:45;;;;;;;25.58;7.55;;;15.60;58.90;;;;;;8280771;28;20041;-65
2021/04/20 17:51:16;;;;;;;9.85;6.70;;;14.60;63.70;;;;;;8323480;28;20594;-66
2021/04/20 17:55:38;;;;;;;8.63;6.55;;;13.80;64.90;;;;;;8321212;28;20034;-64
2021/04/20 18:00:02;;;;;;;12.07;8.23;;;13.20;69.60;;;;;;8312249;28;20037;-65
2021/04/20 18:04:12;;;;;;;13.63;7.95;;;12.90;72.80;;;;;;8306755;28;20021;-65
2021/04/20 18:08:43;;;;;;;12.90;8.03;;;12.70;75.80;;;;;;8317289;28;20033;-64
2021/04/20 18:13:02;;;;;;;17.80;10.13;;;12.40;79.30;;;;;;8319536;28;20034;-65
2021/04/20 18:17:23;;;;;;;16.73;9.63;;;11.80;84.10;;;;;;8317939;28;20033;-64
2021/04/20 18:21:47;;;;;;;15.68;9.80;;;11.40;90.90;;;;;;8325719;28;20057;-64
2021/04/20 18:26:10;;;;;;;14.70;10.15;;;11.10;93.70;;;;;;8312195;28;20040;-65
2021/04/20 18:30:40;;;;;;;15.95;10.80;;;11.00;96.90;;;;;;8307066;28;20115;-65
2021/04/20 18:35:09;;;;;;;16.85;11.30;;;10.80;99.70;;;;;;8310110;28;20048;-65
2021/04/20 18:39:22;;;;;;;17.38;11.18;;;10.60;99.90;;;;;;8325965;28;20055;-65
2021/04/20 18:43:37;;;;;;;19.40;12.65;;;10.30;99.90;;;;;;8327528;28;20029;-65
2021/04/20 18:48:00;;;;;;;18.77;12.32;;;10.20;99.90;;;;;;8295227;28;20026;-65
2021/04/20 18:52:24;;;;;;;20.70;13.55;;;10.10;99.90;;;;;;8313520;28;20033;-65
2021/04/20 18:57:02;;;;;;;19.10;12.63;;;10.20;99.90;;;;;;8308163;28;20124;-65
2021/04/20 19:01:16;;;;;;;18.80;13.00;;;10.10;99.90;;;;;;8297316;28;20076;-65
2021/04/20 19:05:29;;;;;;;21.95;12.73;;;9.90;99.90;;;;;;8293364;28;20088;-65
2021/04/20 19:09:54;;;;;;;19.38;12.77;;;9.80;99.90;;;;;;8300250;28;20038;-64
2021/04/20 19:14:08;;;;;;;21.92;14.27;;;9.70;99.90;;;;;;8307615;28;20028;-64
2021/04/20 19:18:37;;;;;;;20.85;12.80;;;9.60;99.90;;;;;;8309790;28;20033;-64
2021/04/20 19:23:05;;;;;;;24.20;13.88;;;9.60;99.90;;;;;;8309880;28;20034;-65
2021/04/20 19:27:28;;;;;;;21.90;14.38;;;9.40;99.90;;;;;;8308281;28;20034;-65
2021/04/20 19:31:55;;;;;;;25.08;14.50;;;9.10;99.90;;;;;;8312466;28;20070;-65
2021/04/20 19:36:16;;;;;;;22.60;13.88;;;8.90;99.90;;;;;;8307506;28;20087;-65
2021/04/20 19:40:37;;;;;;;22.60;14.10;;;8.90;99.90;;;;;;8310366;28;20030;-65
2021/04/20 19:44:50;;;;;;;25.48;15.15;;;8.70;99.90;;;;;;8312285;28;20041;-64
2021/04/20 19:49:01;;;;;;;23.58;14.75;;;8.70;99.90;;;;;;8298034;28;20030;-65
2021/04/20 19:53:06;;;;;;;24.25;14.57;;;8.70;99.90;;;;;;8312143;28;20029;-65
2021/04/20 19:57:08;;;;;;;22.83;14.23;;;8.70;99.90;;;;;;8308394;28;20107;-64
2021/04/20 20:01:09;;;;;;;25.33;14.45;;;8.70;99.90;;;;;;8300219;28;20026;-64
2021/04/20 20:05:17;;;;;;;24.00;15.00;;;8.40;99.90;;;;;;8301256;28;20113;-64
2021/04/20 20:09:21;;;;;;;24.95;14.90;;;8.20;99.90;;;;;;8307007;28;20044;-65
2021/04/20 20:13:26;;;;;;;24.00;14.10;;;8.10;99.90;;;;;;8310679;28;20021;-65
2021/04/20 20:17:28;;;;;;;20.02;13.52;;;8.00;99.90;;;;;;8311070;28;20056;-65
2021/04/20 20:21:31;;;;;;;21.25;14.07;;;7.80;99.90;;;;;;8312096;28;20017;-65
2021/04/20 20:25:36;;;;;;;23.70;14.90;;;7.40;99.90;;;;;;8319458;28;20048;-65
2021/04/20 20:29:38;;;;;;;24.35;14.45;;;7.20;99.90;;;;;;8323501;28;20057;-65
2021/04/20 20:33:43;;;;;;;25.45;15.00;;;7.20;99.90;;;;;;8289099;28;20642;-65
2021/04/20 20:37:47;;;;;;;23.90;13.82;;;7.40;99.90;;;;;;8291390;28;20436;-65
2021/04/20 20:42:19;;;;;;;30.20;17.80;;;7.20;99.90;;;;;;8291797;28;20468;-65
2021/04/20 20:46:35;;;;;;;42.28;28.38;;;7.00;99.90;;;;;;8311691;28;20511;-65
2021/04/20 20:50:36;;;;;;;33.33;22.15;;;7.00;99.90;;;;;;8325045;28;20060;-66
2021/04/20 20:54:42;;;;;;;32.95;22.85;;;6.90;99.90;;;;;;8324238;28;20030;-65
2021/04/20 20:58:44;;;;;;;30.58;22.33;;;6.90;99.90;;;;;;8323489;28;20034;-65
2021/04/20 21:02:53;;;;;;;25.67;16.88;;;6.90;99.90;;;;;;8313895;28;20152;-65
2021/04/20 21:07:14;;;;;;;21.83;14.73;;;6.80;99.90;;;;;;8294647;28;20443;-65
2021/04/20 21:11:14;;;;;;;26.67;17.58;;;6.60;99.90;;;;;;8294435;28;20361;-65
2021/04/20 21:15:35;;;;;;;24.83;15.13;;;6.30;99.90;;;;;;8307300;28;20033;-65